Time;durP1;ratioP1;P1;durP2;ratioP2;P2;SDS_P1;SDS_P2;PMS_P1;PMS_P2;Temp;Humidity;BMP_temperature;BMP_pressure;BME280_temperature;BME280_humidity;BME280_pressure;Samples;Min_cycle;Max_cycle;Signal;HPM_P1;HPM_P2
2023/07/22 00:01:03;;;;;;;4.57;2.37;;;25.40;89.40;;;;;;5040774;28;20209;-65
2023/07/22 00:03:30;;;;;;;4.23;2.30;;;25.40;89.30;;;;;;5038989;28;20272;-65
2023/07/22 00:06:05;;;;;;;5.03;2.70;;;25.30;89.30;;;;;;5048289;28;20236;-65
2023/07/22 00:08:34;;;;;;;3.60;2.60;;;25.30;89.30;;;;;;5045887;28;20302;-65
2023/07/22 00:11:01;;;;;;;4.57;3.20;;;25.20;89.40;;;;;;5041281;28;20237;-65
2023/07/22 00:13:28;;;;;;;5.60;2.63;;;25.20;89.80;;;;;;5041763;28;20194;-65
2023/07/22 00:15:57;;;;;;;5.63;2.60;;;25.10;90.00;;;;;;5037650;28;20204;-65
2023/07/22 00:18:24;;;;;;;3.17;2.40;;;25.10;90.10;;;;;;5042415;28;20263;-65
2023/07/22 00:20:51;;;;;;;2.47;2.27;;;25.00;90.10;;;;;;5039829;28;20266;-64
2023/07/22 00:23:19;;;;;;;3.13;2.27;;;25.00;90.10;;;;;;5042171;28;20208;-65
2023/07/22 00:25:47;;;;;;;4.97;2.30;;;25.00;90.10;;;;;;5042263;28;20207;-64
2023/07/22 00:28:14;;;;;;;6.23;2.63;;;24.90;90.00;;;;;;5041189;28;20204;-65
2023/07/22 00:30:42;;;;;;;5.23;3.10;;;24.90;90.10;;;;;;5038353;28;20605;-69
2023/07/22 00:33:09;;;;;;;3.80;2.63;;;24.80;90.30;;;;;;5060523;28;20204;-65
2023/07/22 00:35:36;;;;;;;4.00;2.40;;;24.80;90.50;;;;;;5041022;28;20210;-65
2023/07/22 00:38:04;;;;;;;3.70;2.30;;;24.80;90.60;;;;;;5039602;28;20201;-65
2023/07/22 00:40:34;;;;;;;3.40;2.63;;;24.70;90.60;;;;;;5041635;28;20282;-65
2023/07/22 00:43:01;;;;;;;6.53;2.80;;;24.70;90.60;;;;;;5041077;28;20196;-66
2023/07/22 00:45:28;;;;;;;4.90;2.50;;;24.60;90.60;;;;;;5043867;28;20184;-64
2023/07/22 00:47:56;;;;;;;4.77;2.73;;;24.60;90.60;;;;;;5047167;28;20299;-67
2023/07/22 00:50:25;;;;;;;4.10;2.93;;;24.60;90.60;;;;;;5040431;28;20199;-65
2023/07/22 00:52:52;;;;;;;6.33;2.80;;;24.50;90.50;;;;;;5056111;28;20198;-65
2023/07/22 00:55:19;;;;;;;5.17;2.90;;;24.50;90.40;;;;;;5038260;28;20241;-65
2023/07/22 00:57:47;;;;;;;3.43;2.40;;;24.40;90.40;;;;;;5041680;28;20495;-66
2023/07/22 01:00:16;;;;;;;3.20;2.57;;;24.30;90.50;;;;;;5044671;28;20235;-66
2023/07/22 01:02:45;;;;;;;3.33;2.73;;;24.30;90.70;;;;;;5041722;28;20195;-65
2023/07/22 01:05:13;;;;;;;4.60;2.47;;;24.20;90.80;;;;;;5034114;28;20235;-67
2023/07/22 01:07:41;;;;;;;4.90;2.43;;;24.20;90.90;;;;;;5044160;28;20229;-66
2023/07/22 01:10:09;;;;;;;4.57;2.80;;;24.20;90.90;;;;;;5042846;28;20277;-65
2023/07/22 01:12:36;;;;;;;3.43;2.53;;;24.20;90.90;;;;;;5039249;28;20245;-66
2023/07/22 01:15:07;;;;;;;3.13;1.80;;;24.20;90.80;;;;;;5045778;28;20559;-65
2023/07/22 01:17:40;;;;;;;3.83;2.27;;;24.10;90.80;;;;;;5043568;28;20195;-66
2023/07/22 01:20:09;;;;;;;3.73;2.13;;;24.20;90.90;;;;;;5039956;28;20203;-65
2023/07/22 01:22:38;;;;;;;4.57;2.07;;;24.20;90.90;;;;;;5041137;28;20600;-66
2023/07/22 01:25:07;;;;;;;3.40;2.30;;;24.20;90.70;;;;;;5042930;28;20207;-69
2023/07/22 01:27:34;;;;;;;2.50;1.80;;;24.20;90.50;;;;;;5039249;28;20238;-65
2023/07/22 01:30:04;;;;;;;3.80;2.00;;;24.20;90.30;;;;;;5038973;28;20220;-66
2023/07/22 01:32:31;;;;;;;3.17;2.10;;;24.30;90.20;;;;;;5027040;28;20635;-65
2023/07/22 01:34:58;;;;;;;2.20;1.70;;;24.20;90.00;;;;;;5041947;28;20260;-65
2023/07/22 01:37:26;;;;;;;4.87;1.80;;;24.20;90.00;;;;;;5047451;28;20682;-65
2023/07/22 01:39:56;;;;;;;3.33;1.77;;;24.20;90.00;;;;;;5047764;28;20203;-65
2023/07/22 01:42:24;;;;;;;6.27;2.13;;;24.20;90.00;;;;;;5042538;28;20505;-66
2023/07/22 01:44:52;;;;;;;3.07;2.17;;;24.20;89.90;;;;;;5042551;28;20264;-65
2023/07/22 01:47:19;;;;;;;1.90;1.50;;;24.30;90.00;;;;;;5040700;28;20214;-65
2023/07/22 01:49:46;;;;;;;5.10;1.73;;;24.30;89.90;;;;;;5043476;28;20252;-65
2023/07/22 01:52:13;;;;;;;2.37;1.80;;;24.30;89.60;;;;;;5036903;28;20564;-65
2023/07/22 01:54:40;;;;;;;2.30;1.70;;;24.30;89.50;;;;;;5040768;28;20194;-65
2023/07/22 01:57:08;;;;;;;3.40;1.97;;;24.30;89.50;;;;;;5039494;28;20651;-66
2023/07/22 01:59:35;;;;;;;4.27;1.90;;;24.30;89.60;;;;;;5038530;28;20195;-66
2023/07/22 02:02:04;;;;;;;2.13;1.80;;;24.30;89.70;;;;;;5038940;28;20214;-66
2023/07/22 02:04:31;;;;;;;2.70;1.80;;;24.20;89.90;;;;;;5039277;28;20203;-65
2023/07/22 02:06:59;;;;;;;2.37;1.77;;;24.20;90.00;;;;;;5038136;28;20223;-66
2023/07/22 02:09:28;;;;;;;3.40;2.07;;;24.20;89.90;;;;;;5043700;28;20222;-64
2023/07/22 02:11:55;;;;;;;1.90;1.50;;;24.20;89.50;;;;;;5044803;28;20222;-65
2023/07/22 02:14:22;;;;;;;2.93;1.73;;;24.20;89.20;;;;;;5037353;28;20211;-65
2023/07/22 02:16:50;;;;;;;4.63;2.00;;;24.20;89.20;;;;;;5032590;28;20210;-65
2023/07/22 02:19:17;;;;;;;3.10;1.93;;;24.10;89.20;;;;;;5043193;28;20628;-65
2023/07/22 02:21:48;;;;;;;4.07;1.80;;;24.10;89.40;;;;;;5041931;28;20210;-65
2023/07/22 02:24:15;;;;;;;2.30;1.83;;;24.10;89.40;;;;;;5037519;28;20211;-65
2023/07/22 02:26:43;;;;;;;3.63;1.70;;;24.10;89.50;;;;;;5038162;28;20294;-67
2023/07/22 02:29:11;;;;;;;3.43;1.60;;;24.10;89.40;;;;;;5036137;28;20199;-65
2023/07/22 02:31:39;;;;;;;2.77;1.70;;;24.10;89.50;;;;;;5041097;28;20314;-67
2023/07/22 02:34:07;;;;;;;2.27;1.93;;;24.10;89.30;;;;;;5040527;28;20211;-64
2023/07/22 02:36:34;;;;;;;4.30;1.90;;;24.10;89.40;;;;;;5041391;28;20220;-65
2023/07/22 02:39:01;;;;;;;4.23;1.77;;;24.10;89.30;;;;;;5043341;28;20199;-65
2023/07/22 02:41:28;;;;;;;2.20;1.60;;;24.10;89.30;;;;;;5036693;28;20369;-66
2023/07/22 02:43:56;;;;;;;4.13;1.70;;;24.10;89.40;;;;;;5041489;28;20198;-67
2023/07/22 02:46:23;;;;;;;2.87;1.93;;;24.10;89.40;;;;;;5042359;28;20717;-64
2023/07/22 02:48:50;;;;;;;2.90;1.70;;;24.10;89.40;;;;;;5039733;28;20214;-65
2023/07/22 02:51:17;;;;;;;2.87;1.67;;;24.10;89.40;;;;;;5033565;28;20652;-65
2023/07/22 02:53:47;;;;;;;4.40;2.10;;;24.00;89.20;;;;;;5035744;28;20203;-65
2023/07/22 02:56:17;;;;;;;3.73;2.10;;;24.00;89.30;;;;;;5042944;28;20234;-65
2023/07/22 02:58:44;;;;;;;3.07;1.70;;;24.00;89.50;;;;;;5040630;28;20698;-65
2023/07/22 03:01:12;;;;;;;2.30;1.50;;;24.00;89.30;;;;;;5038623;28;20636;-65
2023/07/22 03:03:40;;;;;;;3.37;1.83;;;23.90;89.00;;;;;;5051847;28;20210;-65
2023/07/22 03:06:09;;;;;;;1.93;1.47;;;23.80;89.20;;;;;;5041761;28;20585;-65
2023/07/22 03:08:36;;;;;;;1.70;1.53;;;23.80;89.10;;;;;;5038527;28;20306;-65
2023/07/22 03:11:04;;;;;;;1.90;1.43;;;23.80;89.30;;;;;;5040937;28;20245;-65
2023/07/22 03:13:33;;;;;;;2.90;1.30;;;23.70;89.60;;;;;;5043022;28;20198;-66
2023/07/22 03:16:03;;;;;;;2.17;1.97;;;23.60;89.90;;;;;;5034156;28;20217;-65
2023/07/22 03:18:31;;;;;;;6.83;2.20;;;23.60;90.00;;;;;;5037474;28;20264;-65
2023/07/22 03:21:01;;;;;;;3.90;1.93;;;23.60;90.00;;;;;;5041390;28;20270;-64
2023/07/22 03:23:29;;;;;;;2.80;1.60;;;23.60;90.00;;;;;;5037840;28;20199;-65
2023/07/22 03:25:58;;;;;;;2.13;1.37;;;23.50;90.00;;;;;;5037323;28;20234;-67
2023/07/22 03:28:25;;;;;;;1.57;1.40;;;23.50;90.10;;;;;;5036626;28;20207;-66
2023/07/22 03:30:53;;;;;;;3.40;1.50;;;23.40;90.20;;;;;;5042713;28;20195;-64
2023/07/22 03:33:20;;;;;;;4.97;2.10;;;23.40;90.30;;;;;;5040531;28;20601;-66
2023/07/22 03:35:47;;;;;;;2.57;1.80;;;23.40;90.30;;;;;;5042839;28;20187;-64
2023/07/22 03:38:14;;;;;;;3.80;2.27;;;23.30;90.10;;;;;;5041126;28;20194;-64
2023/07/22 03:40:41;;;;;;;3.10;1.97;;;23.30;90.20;;;;;;5042626;28;20230;-65
2023/07/22 03:43:09;;;;;;;3.73;1.27;;;23.20;90.20;;;;;;5042463;28;20207;-65
2023/07/22 03:45:36;;;;;;;1.90;1.50;;;23.20;90.50;;;;;;5045872;28;20679;-64
2023/07/22 03:48:03;;;;;;;2.27;1.73;;;23.20;90.70;;;;;;5044958;28;20260;-65
2023/07/22 03:50:30;;;;;;;2.77;1.77;;;23.10;90.70;;;;;;5043618;28;20214;-64
2023/07/22 03:52:58;;;;;;;3.60;1.70;;;23.10;90.70;;;;;;5043258;28;20210;-64
2023/07/22 03:55:26;;;;;;;2.50;1.77;;;23.10;90.80;;;;;;5038707;28;20191;-64
2023/07/22 03:57:53;;;;;;;2.07;1.63;;;23.10;90.90;;;;;;5046389;28;20195;-64
2023/07/22 04:00:21;;;;;;;4.43;2.10;;;23.10;90.80;;;;;;5049169;28;20204;-65
2023/07/22 04:02:49;;;;;;;2.33;1.80;;;23.10;90.70;;;;;;5040363;28;20199;-65
2023/07/22 04:05:16;;;;;;;2.33;1.77;;;23.10;90.60;;;;;;5038717;28;20272;-65
2023/07/22 04:07:45;;;;;;;3.00;2.17;;;23.00;90.60;;;;;;5048310;28;20305;-64
2023/07/22 04:10:12;;;;;;;2.90;2.10;;;23.10;90.70;;;;;;5044407;28;20227;-65
2023/07/22 04:12:39;;;;;;;4.70;2.10;;;23.00;90.80;;;;;;5042635;28;20305;-69
2023/07/22 04:15:09;;;;;;;2.80;1.80;;;23.00;90.90;;;;;;5040195;28;20197;-64
2023/07/22 04:17:38;;;;;;;2.63;1.97;;;22.90;91.00;;;;;;5043002;28;20190;-64
2023/07/22 04:20:08;;;;;;;4.20;1.97;;;22.90;91.20;;;;;;5042029;28;20277;-64
2023/07/22 04:22:36;;;;;;;2.93;2.10;;;22.90;91.30;;;;;;5043949;28;20230;-64
2023/07/22 04:25:04;;;;;;;4.47;1.80;;;22.90;91.40;;;;;;5049799;28;20210;-64
2023/07/22 04:27:34;;;;;;;2.63;1.77;;;22.90;91.50;;;;;;5047284;28;20318;-64
2023/07/22 04:30:02;;;;;;;3.50;2.00;;;23.00;91.70;;;;;;5047344;28;20557;-65
2023/07/22 04:32:29;;;;;;;4.80;1.90;;;23.00;91.70;;;;;;5049019;28;20652;-64
2023/07/22 04:34:56;;;;;;;3.60;1.97;;;23.00;91.70;;;;;;5041026;28;20199;-65
2023/07/22 04:37:23;;;;;;;2.30;1.90;;;23.10;91.70;;;;;;5044171;28;20203;-66
2023/07/22 04:39:50;;;;;;;3.27;1.73;;;23.10;91.70;;;;;;5042781;28;20237;-65
2023/07/22 04:42:17;;;;;;;1.97;1.70;;;23.20;91.70;;;;;;5039731;28;20211;-65
2023/07/22 04:44:45;;;;;;;2.83;1.90;;;23.20;91.80;;;;;;5042633;28;20282;-64
2023/07/22 04:47:12;;;;;;;2.83;1.80;;;23.30;91.80;;;;;;5043010;28;20207;-65
2023/07/22 04:49:39;;;;;;;7.40;2.73;;;23.30;91.70;;;;;;5040685;28;20269;-65
2023/07/22 04:52:07;;;;;;;2.90;1.90;;;23.40;91.50;;;;;;5040147;28;20222;-64
2023/07/22 04:54:34;;;;;;;3.60;1.80;;;23.50;91.30;;;;;;5039554;28;20282;-64
2023/07/22 04:57:02;;;;;;;2.50;1.80;;;23.50;91.20;;;;;;5044342;28;20210;-64
2023/07/22 04:59:29;;;;;;;2.40;2.20;;;23.50;91.20;;;;;;5044410;28;20206;-64
2023/07/22 05:01:57;;;;;;;2.33;1.87;;;23.50;91.10;;;;;;5047382;28;20198;-65
2023/07/22 05:04:26;;;;;;;4.63;1.97;;;23.60;91.20;;;;;;5046163;28;20573;-64
2023/07/22 05:06:53;;;;;;;3.17;2.47;;;23.60;91.30;;;;;;5051582;28;20261;-65
2023/07/22 05:09:20;;;;;;;9.53;2.97;;;23.60;91.20;;;;;;5042690;28;20199;-64
2023/07/22 05:11:47;;;;;;;6.13;2.17;;;23.70;91.20;;;;;;5043496;28;20218;-65
2023/07/22 05:14:14;;;;;;;3.77;2.27;;;23.70;91.20;;;;;;5038880;28;20257;-65
2023/07/22 05:16:42;;;;;;;4.17;2.17;;;23.80;91.20;;;;;;5041249;28;20237;-65
2023/07/22 05:19:09;;;;;;;3.07;2.50;;;23.80;91.00;;;;;;5042545;28;20295;-66
2023/07/22 05:21:36;;;;;;;3.60;2.17;;;23.80;90.90;;;;;;5043381;28;20202;-64
2023/07/22 05:24:03;;;;;;;4.57;2.27;;;23.90;90.80;;;;;;5045230;28;20195;-65
2023/07/22 05:26:31;;;;;;;6.63;2.17;;;24.00;90.80;;;;;;5041983;28;20235;-65
2023/07/22 05:28:58;;;;;;;3.00;2.20;;;24.00;90.80;;;;;;5042939;28;20265;-65
2023/07/22 05:31:25;;;;;;;2.67;1.80;;;24.10;90.80;;;;;;5041474;28;20265;-65
2023/07/22 05:33:55;;;;;;;6.00;2.60;;;24.20;90.70;;;;;;5042158;28;20629;-64
2023/07/22 05:36:22;;;;;;;6.07;2.70;;;24.30;90.50;;;;;;5045667;28;20199;-65
2023/07/22 05:38:50;;;;;;;6.77;2.43;;;24.40;90.50;;;;;;5039815;28;20599;-65
2023/07/22 05:41:17;;;;;;;7.10;1.93;;;24.50;90.40;;;;;;5039601;28;20206;-65
2023/07/22 05:43:44;;;;;;;5.30;2.50;;;24.60;90.30;;;;;;5045912;28;20661;-65
2023/07/22 05:46:11;;;;;;;11.47;2.67;;;24.60;90.20;;;;;;5042585;28;20235;-64
2023/07/22 05:48:41;;;;;;;5.10;2.80;;;24.60;90.30;;;;;;5039535;28;20331;-66
2023/07/22 05:51:09;;;;;;;4.50;2.00;;;24.70;90.30;;;;;;5038192;28;20215;-64
2023/07/22 05:53:36;;;;;;;6.30;2.80;;;24.80;90.10;;;;;;5042020;28;20226;-65
2023/07/22 05:56:03;;;;;;;7.40;2.60;;;24.90;90.10;;;;;;5039885;28;20237;-65
2023/07/22 05:58:31;;;;;;;6.90;2.67;;;25.10;90.10;;;;;;5038460;28;20205;-64
2023/07/22 06:00:58;;;;;;;7.63;2.53;;;25.20;90.10;;;;;;5042723;28;20199;-64
2023/07/22 06:03:25;;;;;;;6.83;2.77;;;25.30;90.00;;;;;;5041705;28;20243;-65
2023/07/22 06:05:52;;;;;;;8.17;2.83;;;25.40;89.80;;;;;;5041045;28;20538;-64
2023/07/22 06:08:20;;;;;;;8.93;3.57;;;25.60;89.40;;;;;;5041776;28;20271;-65
2023/07/22 06:10:47;;;;;;;11.03;3.17;;;25.70;88.90;;;;;;5040675;28;20280;-65
2023/07/22 06:13:14;;;;;;;5.10;2.83;;;25.80;88.40;;;;;;5035712;28;20221;-64
2023/07/22 06:15:41;;;;;;;6.03;2.90;;;25.90;88.10;;;;;;5040240;28;20739;-65
2023/07/22 06:18:09;;;;;;;7.73;3.50;;;25.90;87.70;;;;;;5037545;28;20198;-65
2023/07/22 06:20:36;;;;;;;4.00;2.97;;;26.10;87.50;;;;;;5042836;28;20545;-65
2023/07/22 06:23:03;;;;;;;7.77;3.93;;;26.20;87.30;;;;;;5037081;28;20591;-65
2023/07/22 06:25:31;;;;;;;9.40;3.60;;;26.30;86.30;;;;;;5037264;28;20205;-64
2023/07/22 06:27:58;;;;;;;7.40;4.57;;;26.40;85.10;;;;;;5040719;28;20247;-64
2023/07/22 06:30:25;;;;;;;4.27;3.10;;;26.40;84.10;;;;;;5037768;28;20199;-64
2023/07/22 06:32:52;;;;;;;6.77;3.67;;;26.40;84.20;;;;;;5040656;28;20228;-64
2023/07/22 06:35:19;;;;;;;7.10;3.23;;;26.50;83.80;;;;;;5041378;28;20260;-64
2023/07/22 06:37:47;;;;;;;9.73;4.07;;;26.50;83.70;;;;;;5049460;28;20194;-65
2023/07/22 06:40:14;;;;;;;4.27;3.00;;;26.60;83.50;;;;;;5038148;28;20638;-65
2023/07/22 06:42:41;;;;;;;6.27;3.60;;;26.70;83.20;;;;;;5043880;28;20702;-65
2023/07/22 06:45:09;;;;;;;5.67;3.23;;;26.70;83.80;;;;;;5044613;28;20202;-65
2023/07/22 06:47:36;;;;;;;3.73;2.73;;;26.80;83.20;;;;;;5039552;28;20201;-65
2023/07/22 06:50:04;;;;;;;6.43;3.87;;;26.90;82.90;;;;;;5043274;28;20210;-65
2023/07/22 06:52:32;;;;;;;5.17;2.73;;;27.10;81.80;;;;;;5039854;28;20215;-69
2023/07/22 06:54:59;;;;;;;4.77;3.00;;;27.20;81.30;;;;;;5038858;28;20230;-67
2023/07/22 06:57:27;;;;;;;7.03;3.13;;;27.30;80.80;;;;;;5040620;28;20187;-65
2023/07/22 06:59:54;;;;;;;5.47;2.70;;;27.30;79.70;;;;;;5041952;28;20205;-65
2023/07/22 07:02:22;;;;;;;6.70;2.77;;;27.30;79.70;;;;;;5038159;28;20232;-65
2023/07/22 07:04:50;;;;;;;4.90;2.87;;;27.30;80.20;;;;;;5041708;28;20226;-65
2023/07/22 07:07:17;;;;;;;5.43;2.63;;;27.30;80.80;;;;;;5044820;28;20209;-64
2023/07/22 07:09:44;;;;;;;7.10;3.40;;;27.50;80.40;;;;;;5040721;28;20198;-65
2023/07/22 07:12:12;;;;;;;5.83;3.03;;;27.60;79.80;;;;;;5045745;28;20311;-65
2023/07/22 07:14:39;;;;;;;5.33;2.90;;;27.70;79.50;;;;;;5044820;28;20694;-65
2023/07/22 07:17:06;;;;;;;5.97;2.90;;;27.80;79.60;;;;;;5045475;28;20528;-65
2023/07/22 07:19:33;;;;;;;6.60;2.63;;;28.00;78.90;;;;;;5051758;28;20632;-65
2023/07/22 07:22:03;;;;;;;6.67;2.80;;;28.10;78.40;;;;;;5047010;28;20660;-65
2023/07/22 07:24:30;;;;;;;5.03;2.73;;;28.10;77.80;;;;;;5043263;28;20247;-65
2023/07/22 07:26:58;;;;;;;7.57;2.53;;;28.20;77.50;;;;;;5039098;28;20243;-65
2023/07/22 07:29:25;;;;;;;8.50;3.27;;;28.30;78.10;;;;;;5038025;28;20527;-65
2023/07/22 07:32:12;;;;;;;5.23;2.80;;;28.40;77.50;;;;;;5042894;28;20230;-65
2023/07/22 07:34:42;;;;;;;7.83;2.90;;;28.50;76.70;;;;;;5046460;28;20219;-64
2023/07/22 07:37:09;;;;;;;8.57;3.00;;;28.50;76.50;;;;;;5043809;28;20199;-65
2023/07/22 07:39:36;;;;;;;5.53;2.83;;;28.60;76.20;;;;;;5042788;28;20569;-64
2023/07/22 07:42:04;;;;;;;5.93;3.30;;;28.70;76.70;;;;;;5042434;28;20536;-65
2023/07/22 07:44:31;;;;;;;5.23;2.70;;;28.80;76.10;;;;;;5042526;28;20203;-72
2023/07/22 07:46:58;;;;;;;5.27;3.07;;;28.90;75.30;;;;;;5048670;28;20191;-65
2023/07/22 07:49:25;;;;;;;4.57;2.57;;;29.00;75.60;;;;;;5051358;28;20577;-65
2023/07/22 07:51:55;;;;;;;7.27;3.70;;;29.00;74.90;;;;;;5040057;28;20563;-65
2023/07/22 07:54:22;;;;;;;3.47;2.53;;;29.10;74.80;;;;;;5047476;28;20199;-65
2023/07/22 07:56:49;;;;;;;7.30;3.10;;;29.20;74.40;;;;;;5047329;28;20241;-65
2023/07/22 07:59:17;;;;;;;4.57;3.23;;;29.20;74.40;;;;;;5044696;28;20230;-65
2023/07/22 08:01:44;;;;;;;8.07;3.03;;;29.30;74.30;;;;;;5041050;28;20198;-65
2023/07/22 08:04:11;;;;;;;3.40;3.00;;;29.50;73.80;;;;;;5039454;28;20547;-65
2023/07/22 08:06:39;;;;;;;6.33;3.03;;;29.60;73.90;;;;;;5045403;28;20210;-65
2023/07/22 08:09:06;;;;;;;4.60;2.57;;;29.80;73.10;;;;;;5044717;28;20233;-65
2023/07/22 08:11:33;;;;;;;4.20;2.37;;;29.90;72.50;;;;;;5044515;28;20237;-65
2023/07/22 08:14:01;;;;;;;5.03;2.97;;;29.90;71.90;;;;;;5043729;28;20226;-65
2023/07/22 08:16:28;;;;;;;7.70;3.10;;;30.00;72.10;;;;;;5037144;28;20206;-65
2023/07/22 08:18:56;;;;;;;4.70;3.17;;;30.00;72.30;;;;;;5046117;28;20202;-65
2023/07/22 08:21:23;;;;;;;5.30;3.20;;;30.10;72.20;;;;;;5045122;28;20689;-67
2023/07/22 08:23:50;;;;;;;4.47;2.73;;;30.20;71.70;;;;;;5045107;28;20286;-65
2023/07/22 08:26:20;;;;;;;6.67;2.93;;;30.20;72.30;;;;;;5038880;28;20239;-64
2023/07/22 08:28:48;;;;;;;6.63;3.50;;;30.30;71.90;;;;;;5043931;28;20281;-65
2023/07/22 08:31:15;;;;;;;6.53;3.20;;;30.40;71.60;;;;;;5044288;28;20527;-65
2023/07/22 08:33:44;;;;;;;6.80;3.80;;;30.60;71.00;;;;;;5046063;28;20216;-65
2023/07/22 08:36:11;;;;;;;5.10;3.27;;;30.60;69.70;;;;;;5045063;28;20226;-65
2023/07/22 08:38:38;;;;;;;4.57;3.00;;;30.60;70.10;;;;;;5042116;28;20229;-65
2023/07/22 08:41:05;;;;;;;8.53;3.13;;;30.60;70.40;;;;;;5040192;28;20206;-65
2023/07/22 08:43:38;;;;;;;4.17;2.63;;;30.70;70.80;;;;;;5042900;28;20204;-65
2023/07/22 08:46:07;;;;;;;4.47;2.97;;;30.80;69.90;;;;;;5044380;28;20199;-66
2023/07/22 08:48:36;;;;;;;7.63;3.37;;;30.80;69.90;;;;;;5047265;28;20527;-69
2023/07/22 08:51:17;;;;;;;5.33;2.87;;;30.90;69.30;;;;;;5045039;28;20211;-65
2023/07/22 08:53:45;;;;;;;7.40;3.07;;;31.00;69.80;;;;;;5042076;28;20254;-66
2023/07/22 08:56:31;;;;;;;6.37;3.40;;;31.10;69.90;;;;;;5044225;28;20641;-65
2023/07/22 08:59:00;;;;;;;6.13;3.40;;;31.20;68.90;;;;;;5043080;28;20260;-72
2023/07/22 09:01:27;;;;;;;7.13;3.10;;;31.20;68.50;;;;;;5041939;28;20195;-65
2023/07/22 09:03:57;;;;;;;7.47;3.67;;;31.20;68.50;;;;;;5044377;28;20212;-65
2023/07/22 09:06:27;;;;;;;5.97;3.53;;;31.20;68.80;;;;;;5037632;28;20207;-65
2023/07/22 09:08:55;;;;;;;5.50;3.57;;;31.20;69.10;;;;;;5043971;28;20199;-65
2023/07/22 09:11:23;;;;;;;6.03;3.50;;;31.30;69.10;;;;;;5042509;28;20202;-65
2023/07/22 09:13:52;;;;;;;7.07;3.43;;;31.50;69.00;;;;;;5040513;28;20223;-65
2023/07/22 09:16:21;;;;;;;6.03;3.80;;;31.70;67.20;;;;;;5039594;28;20195;-66
2023/07/22 09:18:48;;;;;;;7.83;3.70;;;31.70;67.60;;;;;;5040911;28;20196;-65
2023/07/22 09:21:15;;;;;;;6.53;3.30;;;31.70;67.00;;;;;;5037834;28;20578;-65
2023/07/22 09:23:42;;;;;;;6.07;3.03;;;31.70;66.60;;;;;;5043496;28;20201;-65
2023/07/22 09:26:13;;;;;;;7.57;3.00;;;31.80;66.80;;;;;;5044121;28;20265;-65
2023/07/22 09:28:52;;;;;;;7.53;3.53;;;31.80;66.70;;;;;;5042636;28;20203;-66
2023/07/22 09:31:27;;;;;;;5.03;3.10;;;31.90;66.80;;;;;;5044343;28;20214;-66
2023/07/22 09:34:08;;;;;;;4.27;3.40;;;32.00;66.80;;;;;;5044793;28;20626;-65
2023/07/22 09:37:00;;;;;;;6.07;3.53;;;32.00;66.30;;;;;;5042983;28;20199;-65
2023/07/22 09:39:27;;;;;;;6.27;3.47;;;31.90;66.60;;;;;;5039354;28;20206;-65
2023/07/22 09:41:55;;;;;;;5.87;3.67;;;32.00;67.80;;;;;;5044220;28;20221;-65
2023/07/22 09:44:31;;;;;;;6.47;3.83;;;32.10;67.40;;;;;;5041319;28;20530;-65
2023/07/22 09:46:58;;;;;;;5.77;3.37;;;32.20;66.20;;;;;;5046153;28;20548;-66
2023/07/22 09:49:26;;;;;;;8.87;3.73;;;32.10;66.10;;;;;;5036042;28;20211;-66
2023/07/22 09:51:53;;;;;;;6.57;4.10;;;32.10;66.20;;;;;;5038948;28;20207;-66
2023/07/22 09:54:31;;;;;;;6.37;3.90;;;32.20;65.60;;;;;;5037251;28;20225;-65
2023/07/22 09:56:59;;;;;;;8.23;3.70;;;32.20;66.20;;;;;;5040941;28;20648;-66
2023/07/22 09:59:29;;;;;;;6.90;4.10;;;32.30;66.20;;;;;;5044266;28;20277;-65
2023/07/22 10:02:00;;;;;;;7.90;4.30;;;32.40;65.80;;;;;;5047183;28;20213;-65
2023/07/22 10:04:33;;;;;;;6.93;3.73;;;32.60;65.00;;;;;;5048408;28;20207;-65
2023/07/22 10:07:04;;;;;;;11.23;4.10;;;32.80;65.60;;;;;;5044539;28;20207;-65
2023/07/22 10:09:32;;;;;;;8.90;3.93;;;32.90;64.60;;;;;;5043854;28;20261;-65
2023/07/22 10:11:59;;;;;;;7.67;4.07;;;33.10;63.80;;;;;;5039293;28;20261;-66
2023/07/22 10:14:27;;;;;;;6.23;3.87;;;33.20;64.10;;;;;;5040383;28;20219;-65
2023/07/22 10:16:59;;;;;;;9.10;4.13;;;33.20;64.00;;;;;;5039434;28;20202;-65
2023/07/22 10:19:26;;;;;;;7.13;3.57;;;33.20;63.80;;;;;;5038636;28;20199;-66
2023/07/22 10:21:54;;;;;;;7.33;4.17;;;33.20;64.60;;;;;;5044236;28;20632;-68
2023/07/22 10:24:21;;;;;;;6.90;3.70;;;33.30;64.10;;;;;;5041206;28;20237;-65
2023/07/22 10:26:51;;;;;;;9.37;5.07;;;33.40;63.80;;;;;;5041552;28;20239;-66
2023/07/22 10:29:20;;;;;;;8.27;4.00;;;33.50;62.90;;;;;;5037884;28;20226;-66
2023/07/22 10:31:52;;;;;;;7.03;3.50;;;33.50;62.30;;;;;;5041460;28;20238;-66
2023/07/22 10:34:26;;;;;;;8.20;3.83;;;33.50;62.30;;;;;;5040947;28;20215;-65
2023/07/22 10:36:57;;;;;;;6.90;3.60;;;33.50;62.20;;;;;;5040527;28;20213;-66
2023/07/22 10:39:26;;;;;;;7.03;3.90;;;33.60;62.50;;;;;;5039976;28;20214;-66
2023/07/22 10:42:06;;;;;;;6.90;4.17;;;33.60;62.90;;;;;;5041966;28;20217;-66
2023/07/22 10:44:36;;;;;;;6.80;4.07;;;33.80;61.50;;;;;;5045887;28;20727;-66
2023/07/22 10:47:04;;;;;;;10.27;4.77;;;33.80;60.80;;;;;;5042277;28;20647;-65
2023/07/22 10:49:48;;;;;;;9.27;4.60;;;33.80;61.30;;;;;;5038733;28;20549;-66
2023/07/22 10:52:43;;;;;;;6.30;3.60;;;33.70;60.70;;;;;;5036152;28;20187;-65
2023/07/22 10:55:15;;;;;;;4.83;3.63;;;33.70;61.70;;;;;;5042499;28;20206;-65
2023/07/22 10:58:08;;;;;;;7.77;3.70;;;33.70;62.00;;;;;;5041510;28;20267;-65
2023/07/22 11:00:35;;;;;;;10.40;4.13;;;33.80;61.10;;;;;;5041270;28;20654;-65
2023/07/22 11:03:21;;;;;;;7.50;4.33;;;33.80;60.80;;;;;;5038306;28;20674;-65
2023/07/22 11:05:54;;;;;;;5.73;4.00;;;33.60;60.00;;;;;;5041554;28;20544;-66
2023/07/22 11:08:40;;;;;;;7.53;4.37;;;33.50;61.00;;;;;;5042294;28;20191;-65
2023/07/22 11:11:07;;;;;;;8.63;3.83;;;33.50;62.50;;;;;;5044203;28;20198;-65
2023/07/22 11:13:39;;;;;;;6.30;4.17;;;33.60;61.20;;;;;;5039231;28;20581;-65
2023/07/22 11:16:13;;;;;;;8.23;4.30;;;33.60;60.70;;;;;;5040561;28;20187;-66
2023/07/22 11:18:41;;;;;;;10.87;4.40;;;33.70;61.00;;;;;;5049365;28;20199;-68
2023/07/22 11:21:12;;;;;;;8.33;4.43;;;33.80;62.00;;;;;;5044720;28;20291;-65
2023/07/22 11:23:41;;;;;;;6.83;4.43;;;33.90;59.80;;;;;;5038405;28;20202;-65
2023/07/22 11:26:09;;;;;;;8.67;3.90;;;33.90;60.40;;;;;;5037941;28;20251;-66
2023/07/22 11:28:36;;;;;;;7.63;3.87;;;34.00;60.30;;;;;;5039324;28;20199;-65
2023/07/22 11:31:08;;;;;;;5.40;3.80;;;34.10;58.90;;;;;;5038718;28;20207;-65
2023/07/22 11:33:43;;;;;;;9.50;4.23;;;34.20;59.20;;;;;;5038964;28;20223;-66
2023/07/22 11:36:10;;;;;;;8.07;4.03;;;34.20;59.90;;;;;;5039303;28;20197;-65
2023/07/22 11:38:37;;;;;;;6.13;4.20;;;34.20;58.90;;;;;;5044237;28;20218;-65
2023/07/22 11:41:04;;;;;;;7.90;3.80;;;34.20;59.20;;;;;;5036953;28;20522;-67
2023/07/22 11:43:32;;;;;;;6.93;4.37;;;34.20;59.00;;;;;;5038821;28;20297;-65
2023/07/22 11:45:59;;;;;;;7.07;3.90;;;34.30;58.00;;;;;;5041809;28;20195;-65
2023/07/22 11:48:26;;;;;;;11.13;5.20;;;34.30;58.20;;;;;;5036594;28;20224;-65
2023/07/22 11:50:58;;;;;;;11.83;4.90;;;34.20;58.80;;;;;;5041359;28;20516;-65
2023/07/22 11:53:29;;;;;;;5.47;3.90;;;34.10;59.20;;;;;;5039948;28;20664;-66
2023/07/22 11:55:56;;;;;;;5.80;4.43;;;34.00;59.60;;;;;;5043162;28;20621;-65
2023/07/22 11:58:27;;;;;;;4.43;4.03;;;34.10;59.40;;;;;;5044632;28;20217;-65
2023/07/22 12:01:09;;;;;;;4.27;3.87;;;34.00;59.70;;;;;;5042213;28;20222;-68
2023/07/22 12:03:37;;;;;;;7.07;4.40;;;34.10;59.60;;;;;;5041109;28;20199;-66
2023/07/22 12:06:06;;;;;;;9.87;4.10;;;34.20;59.40;;;;;;5046610;28;20217;-66
2023/07/22 12:08:35;;;;;;;5.30;3.90;;;34.30;58.60;;;;;;5042871;28;20202;-65
2023/07/22 12:11:03;;;;;;;6.70;4.53;;;34.20;58.80;;;;;;5045710;28;20207;-65
2023/07/22 12:13:36;;;;;;;6.80;4.13;;;34.00;58.60;;;;;;5047355;28;20527;-65
2023/07/22 12:16:06;;;;;;;11.17;4.90;;;33.70;57.80;;;;;;5041593;28;20199;-65
2023/07/22 12:18:47;;;;;;;7.63;4.40;;;33.40;59.10;;;;;;5050551;28;20206;-65
2023/07/22 12:21:14;;;;;;;7.10;4.40;;;33.00;60.40;;;;;;5047343;28;20195;-65
2023/07/22 12:23:42;;;;;;;6.83;4.37;;;32.70;61.50;;;;;;5040946;28;20203;-65
2023/07/22 12:26:09;;;;;;;8.83;4.60;;;32.50;62.80;;;;;;5039694;28;20357;-65
2023/07/22 12:28:36;;;;;;;7.10;4.80;;;32.30;63.40;;;;;;5036400;28;20203;-65
2023/07/22 12:31:03;;;;;;;9.07;4.13;;;32.10;63.90;;;;;;5037112;28;20218;-65
2023/07/22 12:58:11;;;;;;;13.67;8.67;;;26.30;84.50;;;;;;5064072;28;20636;-66
2023/07/22 13:00:39;;;;;;;10.30;6.20;;;22.40;99.90;;;;;;5050183;28;20259;-65
2023/07/22 13:03:06;;;;;;;11.20;8.27;;;22.10;99.90;;;;;;5065187;28;20197;-66
2023/07/22 13:05:33;;;;;;;17.90;9.10;;;22.00;99.90;;;;;;5060620;28;20207;-66
2023/07/22 13:08:01;;;;;;;10.33;7.80;;;21.90;99.90;;;;;;5059523;28;20206;-65
2023/07/22 13:10:33;;;;;;;16.23;8.20;;;21.90;99.90;;;;;;5062771;28;20226;-66
2023/07/22 13:13:00;;;;;;;14.50;8.70;;;21.90;99.90;;;;;;5051041;28;20548;-66
2023/07/22 13:15:30;;;;;;;13.90;7.47;;;21.90;99.90;;;;;;5051365;28;20221;-66
2023/07/22 13:17:58;;;;;;;8.90;7.63;;;22.00;99.90;;;;;;5074176;28;20556;-66